createdAt,value
2023-04-18T00:05:17.454Z,4.23
2023-04-18T00:15:55.972Z,4.14
2023-04-18T00:21:14.791Z,4.1
2023-04-18T00:26:33.693Z,4.04
2023-04-18T00:31:52.890Z,3.97
2023-04-18T00:42:32.186Z,3.93
2023-04-18T00:47:51.387Z,3.97
2023-04-18T00:58:30.048Z,3.87
2023-04-18T01:03:49.042Z,3.72
2023-04-18T01:09:08.657Z,3.69
2023-04-18T01:14:27.516Z,3.75
2023-04-18T01:25:06.424Z,3.75
2023-04-18T01:30:25.803Z,3.72
2023-04-18T01:41:03.697Z,3.8
2023-04-18T01:46:22.862Z,3.94
2023-04-18T01:51:41.755Z,3.8
2023-04-18T01:57:00.664Z,3.63
2023-04-18T02:07:39.694Z,3.45
2023-04-18T02:12:59.326Z,3.31
2023-04-18T02:23:47.629Z,3.24
2023-04-18T02:28:56.866Z,3.22
2023-04-18T02:34:16.420Z,3.19
2023-04-18T02:39:36.075Z,3.11
2023-04-18T02:44:55.322Z,3.11
2023-04-18T02:50:15.017Z,3.14
2023-04-18T02:55:33.818Z,3.18
2023-04-18T03:06:13.618Z,3.22
2023-04-18T03:11:32.840Z,3.24
2023-04-18T03:22:11.163Z,3.35
2023-04-18T03:27:30.218Z,3.4
2023-04-18T03:32:49.520Z,3.52
2023-04-18T03:38:08.950Z,3.54
2023-04-18T03:48:46.559Z,3.55
2023-04-18T03:54:05.858Z,3.63
2023-04-18T04:04:43.750Z,3.77
2023-04-18T04:10:03.036Z,3.82
2023-04-18T04:15:21.983Z,3.86
2023-04-18T04:20:40.792Z,3.93
2023-04-18T04:31:19.438Z,4.11
2023-04-18T04:36:38.331Z,4.27
2023-04-18T04:47:16.914Z,4.48
2023-04-18T04:52:36.122Z,4.54
2023-04-18T04:57:55.631Z,4.59
2023-04-18T05:03:15.369Z,4.69
2023-04-18T05:13:53.263Z,4.83
2023-04-18T05:19:12.197Z,4.88
2023-04-18T05:29:50.528Z,5.01
2023-04-18T05:35:09.404Z,5.16
2023-04-18T05:40:28.582Z,5.29
2023-04-18T05:45:48.652Z,5.46
2023-04-18T05:56:27.775Z,5.79
2023-04-18T06:01:45.929Z,5.88
2023-04-18T06:12:24.459Z,6.1
2023-04-18T06:17:43.740Z,6.28
2023-04-18T06:23:02.743Z,6.43
2023-04-18T06:28:22.278Z,6.66
2023-04-18T06:33:41.876Z,6.81
2023-04-18T06:39:00.922Z,6.92
2023-04-18T06:49:39.807Z,7.28
2023-04-18T06:54:59.484Z,7.43
2023-04-18T07:00:18.894Z,7.55
2023-04-18T07:05:38.639Z,7.8
2023-04-18T07:10:57.392Z,8
2023-04-18T07:16:16.697Z,8.01
2023-04-18T07:21:35.620Z,8.01
2023-04-18T07:32:24.776Z,8.34
2023-04-18T07:37:33.914Z,8.6
2023-04-18T07:48:12.102Z,8.72
2023-04-18T07:53:30.873Z,8.72
2023-04-18T07:58:50.326Z,8.7
2023-04-18T08:04:09.161Z,8.99
2023-04-18T08:14:47.470Z,9.39
2023-04-18T08:20:07.269Z,9.38
2023-04-18T08:30:45.480Z,9.3
2023-04-18T08:36:05.103Z,9.39
2023-04-18T08:41:24.329Z,9.51
2023-04-18T08:46:43.206Z,9.78
2023-04-18T08:52:02.370Z,9.91
2023-04-18T08:57:21.990Z,10.05
2023-04-18T09:02:41.771Z,10.08
2023-04-18T09:13:20.499Z,10.14
2023-04-18T09:18:39.948Z,10.34
2023-04-18T09:29:18.165Z,11.7
2023-04-18T09:34:37.890Z,11.4
2023-04-18T09:39:56.899Z,11.42
2023-04-18T09:45:16.113Z,12.14
2023-04-18T09:55:57.094Z,12.9
2023-04-18T10:01:14.221Z,12.7
2023-04-18T10:11:52.873Z,11.89
2023-04-18T10:17:12.113Z,11.84
2023-04-18T10:22:32.225Z,11.79
2023-04-18T10:27:51.492Z,11.79
2023-04-18T10:38:29.888Z,11.55
2023-04-18T10:43:48.188Z,11.49
2023-04-18T10:54:25.719Z,11.52
2023-04-18T10:59:45.202Z,11.89
2023-04-18T11:05:04.348Z,12.8
2023-04-18T11:10:23.788Z,13.48
2023-04-18T11:15:42.923Z,12.99
2023-04-18T11:21:01.913Z,12.44
2023-04-18T11:26:20.937Z,12.24
2023-04-18T11:36:59.293Z,12.63
2023-04-18T11:42:18.824Z,12.82
2023-04-18T11:47:38.508Z,12.82
2023-04-18T11:52:57.639Z,12.85
2023-04-18T11:58:17.046Z,12.97
2023-04-18T12:03:36.940Z,13.03
2023-04-18T12:08:55.353Z,13
2023-04-18T12:19:34.002Z,13.17
2023-04-18T12:24:53.771Z,13.24
2023-04-18T12:35:32.933Z,13.04
2023-04-18T12:40:51.645Z,13.33
2023-04-18T12:46:10.727Z,13.75
2023-04-18T12:51:30.241Z,13.83
2023-04-18T13:02:08.849Z,13.54
2023-04-18T13:07:27.831Z,13.47
2023-04-18T13:19:46.017Z,13.67
2023-04-18T13:23:27.921Z,13.61
2023-04-18T13:28:46.386Z,13.95
2023-04-18T13:34:32.986Z,15.15
2023-04-18T13:45:12.252Z,16.07
2023-04-18T13:50:31.561Z,14.91
2023-04-18T14:01:09.789Z,14.22
2023-04-18T14:06:28.659Z,14.18
2023-04-18T14:11:48.046Z,14.19
2023-04-18T14:17:05.841Z,14.39
2023-04-18T14:27:43.372Z,14.29
2023-04-18T14:33:02.521Z,14.4
2023-04-18T14:43:40.216Z,14.18
2023-04-18T14:54:18.767Z,13.97
2023-04-18T14:59:37.712Z,13.81
2023-04-18T15:10:16.641Z,13.47
2023-04-18T15:15:36.169Z,13.33
2023-04-18T15:26:15.238Z,13
2023-04-18T15:31:34.361Z,12.76
2023-04-18T15:36:53.970Z,12.59
2023-04-18T15:42:13.048Z,12.46
2023-04-18T15:52:51.496Z,12.14
2023-04-18T15:58:10.196Z,12.04
2023-04-18T16:08:49.071Z,11.87
2023-04-18T16:14:08.321Z,11.8
2023-04-18T16:24:47.142Z,11.65
2023-04-18T16:30:06.497Z,11.59
2023-04-18T16:35:25.993Z,11.5
2023-04-18T16:40:44.863Z,11.44
2023-04-18T16:51:23.272Z,11.3
2023-04-18T16:56:42.634Z,11.22
2023-04-18T17:02:02.330Z,11.15
2023-04-18T17:07:29.221Z,11.08
2023-04-18T17:12:40.444Z,11.04
2023-04-18T17:17:59.775Z,11.01
2023-04-18T17:23:19.227Z,10.99
2023-04-18T17:33:57.966Z,10.85
2023-04-18T17:39:17.897Z,10.75
2023-04-18T17:49:55.720Z,10.59
2023-04-18T17:55:15.259Z,10.5
2023-04-18T18:00:34.953Z,10.41
2023-04-18T18:05:54.454Z,10.33
2023-04-18T18:16:32.578Z,10.2
2023-04-18T18:21:51.684Z,10.16
2023-04-18T18:32:29.646Z,10
2023-04-18T18:37:48.570Z,9.95
2023-04-18T18:43:08.075Z,9.89
2023-04-18T18:48:27.833Z,9.82
2023-04-18T18:53:46.637Z,9.82
2023-04-18T18:59:06.658Z,9.77
2023-04-18T19:04:25.742Z,9.68
2023-04-18T19:15:03.322Z,9.67
2023-04-18T19:20:22.933Z,9.6
2023-04-18T19:25:41.768Z,9.57
2023-04-18T19:31:01.325Z,9.52
2023-04-18T19:36:20.758Z,9.5
2023-04-18T19:41:39.867Z,9.5
2023-04-18T19:46:59.414Z,9.42
2023-04-18T19:57:37.948Z,9.35
2023-04-18T20:02:57.661Z,9.3
2023-04-18T20:13:36.910Z,9.2
2023-04-18T20:18:56.544Z,9.1
2023-04-18T20:24:16.253Z,8.96
2023-04-18T20:34:54.567Z,8.84
2023-04-18T20:40:12.960Z,8.85
2023-04-18T20:50:51.808Z,8.77
2023-04-18T20:56:11.083Z,8.75
2023-04-18T21:01:30.419Z,8.7
2023-04-18T21:06:49.473Z,8.7
2023-04-18T21:12:08.320Z,8.72
2023-04-18T21:17:27.270Z,8.68
2023-04-18T21:22:46.444Z,8.66
2023-04-18T21:33:25.417Z,8.6
2023-04-18T21:38:44.861Z,8.53
2023-04-18T21:44:04.406Z,8.55
2023-04-18T21:49:23.974Z,8.55
2023-04-18T21:54:44.127Z,8.49
2023-04-18T22:05:22.876Z,8.46
2023-04-18T22:16:01.427Z,8.42
2023-04-18T22:21:20.276Z,8.43
2023-04-18T22:31:57.409Z,8.38
2023-04-18T22:37:16.818Z,8.38
2023-04-18T22:42:38.037Z,8.34
2023-04-18T22:47:55.478Z,8.31
2023-04-18T22:58:34.477Z,8.31
2023-04-18T23:03:53.378Z,8.31
2023-04-18T23:14:32.119Z,8.25
2023-04-18T23:19:51.629Z,8.21
2023-04-18T23:25:11.410Z,8.22
2023-04-18T23:30:31.009Z,8.21
2023-04-18T23:41:09.356Z,8.18
2023-04-18T23:46:28.608Z,8.2
2023-04-18T23:57:06.359Z,8.1
